Etusivu
METAR-TAF:

METAR-TAF

Lentoasemat :

Tétouan, Marokko

Leveyspiiri: 35-35N, Pituuspiiri: 005-20W, korkeus merenpinnasta: 10 m

Tämänhetkinen sää

Tämä raportti tehtiin 39 minuuttia sitten, kello 00.00 UTC
Tuuli 7 kn luoteesta, vaihdellen lännen/luoteen ja pohjoisen välillä
Lämpötila 19°C
Kosteus 88%
Ilmanpaine 1011 hPa
Näkyvyys 10 km tai enemmän
Muutamia pilviä 2600 ft:n korkeudessa
Hajanaisia pilviä 4000 ft:n korkeudessa
Hajonneita pilviä 12000 ft:n korkeudessa

METAR: GMTN 090000Z 32007KT 300V360 9999 FEW026 SCT040 BKN120 19/17 Q1011 NOSIG

Aika: 00:39 (00:39 UTC)


TAF: puuttuu

Säähavainnot ja -ennusteet yli 4000 lentoasemalta (METAR- ja TAF-raportit).

Käytössä olevat sääasemat on merkitty karttaan keltaisilla ja punaisilla pisteillä.

Aseta hiiri pisteen päälle nähdäksesi sääaseman nimen.

Klikkaa sitten nähdäksesi säähavainnot ja -ennusteet.

Kartan vaihtaminen: klikkaa mustalla rastilla varustettuja vihreitä pisteitä, niin voit zoomata sisään; viivalla varustettua vihreää pistettä, niin voit zoomata ulos tai vihreitä nuolia, niin pääset viereisille kartoille.


METAR-TAF: